Member area
Imprimable
Challenges > Delhalle - Chimay, 20/04/2019, BEL - Jogging de la Principauté
List of reports > Delhalle - 14.3 km - Result
Search: Page: [1]
173 Entries
 
Complains are not accepted anymore. Results are final.
PlaceNrNameAgeNATLeagueTeamRealTimeTkmMoy.ScrPtsCity
1.1016ABARCA JUNIOR30PERARCHY'S TEAM51:1851:183:36 16.731BRUXELLES
2.360DETHIER JULIEN27BELHERVSAUCONY-JOGGING+52:1552:153:40 16.423BATTICE
3.1501DEBLANDER ROMAIN28BELUSBWTRAKKS55:1755:173:52 15.525BRAINE L'ALLEUD
4.419D'HARVENG NICOLAS36BELTRIGT56:5456:543:59 15.088CORTIL NOIRMONT
5.920PIERRE BENJAMIN24BELTRAKKS57:2857:284:02 14.939RAMILLIES
6.1625FRANÇOIS MATHIEU27BEL59:0159:014:08 14.5412PERWEZ
7.338HEUNINCK ALEXANDRE30BELMYSTERE59:1559:154:09 14.4813SCHAERBEEK
8.363MARCHAL GILLES30BELRUNATTITUDE-GAG59:4659:464:11 14.3614GEMBLOUX
9.332HANNARD KEVIN36BELFLEU1:00:181:00:184:13 14.2316AUVELAIS
10.6773PREAUX TOM21BEL1:00:251:00:254:14 14.2017
11.1050LACAILLE LIONEL34FRA1:00:441:00:444:15 14.1318CHAMPLIN
12.5971VAN LERBERGHE MARTIN27BELJACOJACO1:01:131:01:134:17 14.0220VIRELLES
13.6770BERTEAUX MICKAEL34FRA1:01:411:01:414:19 13.9121
14.1495RUTTEN TOM24BEL1:01:571:01:574:20 13.8522MOMIGNIES
15.6496DEFAWE JEAN-BAPTISTE24BELRIWA1:03:081:03:084:25 13.5924RIXENSART
16.1013NAVEAU MAXIME35BELJACO1:03:201:03:204:26 13.5527CHIMAY
17.6219LUST THIBAUT39BELJACO1:03:251:03:254:27 13.5328FRANCE
18.6730POUCET ANTOINE37BEL1:03:491:03:494:28 13.4533
19.1881DUPUIS DAMIEN37BELSHARKS TRIATHLON1:04:081:04:084:30 13.3835BAILEUX
20.6173LEBLANC RENAUD34BELJACO1:04:331:04:334:31 13.2937VILLERS LA TOUR
21.1517SOBRY MATHIEU35BELJACO1:04:551:04:554:33 13.2240CHIMAY
22.6243LOCUTY JOHANN37FRACAFCAF1:05:161:05:164:34 13.1541TRÉLON
23.6781GUSTIN JÉRÔME43BELRCNAMUR1:05:461:05:464:36 13.0545FLOREFFE
24.6731FALISE BENJAMIN34BEL1:05:571:05:574:37 13.0147
25.6198VAN GHELUWE RÉMI39FRAJACOJACO1:06:301:06:304:39 12.905008380
26.393DEVRIEZE DAMIEN27BEL1:06:371:06:374:40 12.8852ACOZ
27.6759WIECZOR KEVIN33BELESM1:06:401:06:404:40 12.8754GOZEE
28.6740BLANCHARD POL25BEL1:06:581:06:584:41 12.8159THUILLIES
29.6462HAAG GUILLAUME30BELGHAAG1:07:101:07:104:42 12.7862BANDE
30.6704DELOBBE JONATHAN35BEL1:07:521:07:524:45 12.6565
31.5975BRASSEUR LUDOVIC36BELESM1:07:591:07:594:46 12.6266BERSILLIES L ABBAYE
32.6753HERMANT THIBAUT20BEL1:08:261:08:264:48 12.5470FROIDCHAPELLE
33.6848CORDEWENER JULIEN27BEL1:08:421:08:424:49 12.4971
34.6800DEWANDRE AURELIEN37BELSHARKS TRIATHLON1:08:461:08:464:49 12.4872ROBECHIS
35.250MAQUET DENIS33BEL1:08:481:08:484:49 12.4773NIVELLES
36.6685CHINTINNE JÉRÉMIE28BEL1:08:491:08:494:49 12.4774SOMZÉE
37.6454DAUSSY EMERIC37FRA1:09:161:09:164:51 12.3977ORIGNY EN THIÉRACHE
38.6742GOERRIEK YVAN24FRA1:09:201:09:204:51 12.3880
39.6828TENAERTS THOMAS20BELCABW1:09:251:09:254:52 12.3683FORGE-PHILIPPE
40.6191MAUDOUX LIONEL36BELJACO1:09:271:09:274:52 12.3684BOURLERS
41.6716ROCHETTE ARNAUD35BEL1:10:021:10:024:54 12.2588PESCHE
42.6577CHARLIER PIERRE32BEL1:10:121:10:124:55 12.2290IXELLES
43.1888LEURQUIN ANTHONY33BELJACO1:10:531:10:534:58 12.1098BAILEUX
44.6722BEUGNIES NICOLAS37BEL1:11:171:11:175:00 12.04105
45.220KEISER NICOLAS21BELJC HSH1:11:541:11:545:02 11.93112HAM-SUR-HEURE
46.1009DUCARME NICOLAS35BELKAISER POMPETTE1:12:121:12:125:03 11.89115RANCE
47.6734FALISE VALENTIN30BEL1:12:121:12:125:03 11.88116
48.6541CORDEWENER BENOÎT31BELAC FRONTIÈRES1:12:281:12:285:05 11.84123X
49.654KIPS DAVID36BELRCNAMUR1:12:341:12:345:05 11.83125GEMBLOUX
50.6538DELERS CLÉMENT31BEL1:12:501:12:505:06 11.78129GONRIEUX
51.6495ERNEST NICOLAS25BELJACOJCPMF CHIMAY1:13:191:13:195:08 11.70132VIRELLES
52.6729POUCET GUILLAUME39BEL1:13:421:13:425:10 11.64135
53.1592NORDIER LUDOVIC29BEL1:13:481:13:485:10 11.63136LEVAL-TRAHEGNIES
54.6714PAMART GUILLAUME37FRA1:14:011:14:015:11 11.59141
55.1059DENIS ROMAIN23BEL1:14:061:14:065:11 11.58142LINGOLSHEIM
56.1552DOUCE VINCENT39FRA1:14:271:14:275:13 11.53150SORBAIS
57.1018SOUTMANS THIBAUT29BELTNT1:14:271:14:275:13 11.53151NAMUR
58.6782PETITJEAN GILLES24BEL1:14:381:14:385:14 11.50154COUVIN
59.6712FORTEMPS BENJAMIN22BEL1:15:271:15:275:17 11.37173
60.6701DEVILLERS GILLES34BEL1:15:411:15:415:18 11.34178HAM SUR HEURE
61.6500LENFANT MICKAEL37FRARSN1:15:561:15:565:19 11.30181ROCROI
62.6482AMANT BERTRAND36BELLA THURE1:16:141:16:145:20 11.26187X
63.1621MICHEL ROBIN38BELC.S. FORGES1:16:431:16:435:22 11.19190HESTRUD
64.6475DEBRABANDERE FRANCOIS34BELVERTIGVERTIGO1:17:191:17:195:25 11.10195JURBISE
65.6733JENNEQUIN MAXIME29BEL1:17:401:17:405:26 11.05200
66.875FORT EDOUARD32FRARONVAU1:17:421:17:425:27 11.04203HOWALD
67.6520PUISSANT SIMON33BEL1:18:581:18:585:32 10.87219CHIMAY
68.6527THOLL JEAN-PHILIPPE39BEL1:19:171:19:175:33 10.822216740
69.6737CATINUS THOMAS31BEL1:19:411:19:415:35 10.77227
70.1558GERVAISE CHARLY36FRA1:19:491:19:495:35 10.75229CHARLEVILLE MEZIERES
71.1557ROVER JEREMY29FRA1:19:501:19:505:35 10.75230BAZEILLES
72.6442ANTONIO ALEXANDRE35FRA1:20:281:20:285:38 10.6623859186
73.6756PATAT JEREMY23BEL1:21:241:21:245:42 10.54253
74.6524CHARTIER ANDY35BEL1:21:441:21:445:43 10.50258COURCELLES
75.6240LEURQUIN STANY34BEL1:22:281:22:285:47 10.40273HANZINNE
76.1073CORDEWENER MATHIEU33BELAC FRONTIÈRES1:22:361:22:365:47 10.39277X
77.6242BAUDRY JULIEN32FRACAF TRIATHLON FOURMI1:22:541:22:545:48 10.35284LIESSIES
78.6416CHAVEPEYER GUILLAUME34BELTHE SPORTERS1:22:551:22:555:48 10.35285THIMEON
79.6771DARDENNE VALENTIN24BEL1:23:041:23:045:49 10.33289SAINT RÉMY
80.6526LABILLOY FLORENT38BELAC FRONTIÈRES1:23:251:23:255:50 10.29295X
81.6842DUBOIS ROMAIN25BEL1:23:561:23:565:53 10.22302
82.6695ERNOTTE YVERICK24BEL1:24:181:24:185:54 10.18309
83.6232NICOLAS JEROME34BEL1:24:331:24:335:55 10.15311COUVIN
84.6827SCULFORT REMI37FRA1:24:341:24:345:55 10.15312
85.6199RONVAL DAVID38FRA1:24:501:24:505:56 10.11315TRÉLON
86.6503LEROY JORIS27BEL1:25:041:25:045:57 10.09318VIRELLES
87.696LECLEF SEBASTIEN39BELCSFMYSTERE1:25:131:25:135:58 10.07319FOREST
88.6836BRUYNBROECK LOIC22BEL1:25:151:25:155:58 10.06321
89.5970MOREAU GUILLAUME36FRA1:25:331:25:335:59 10.03332ST MICHEL
90.1011DELHAYE STEVE24BEL1:25:371:25:376:00 10.02333BRUXELLES
91.786CORBIAUX BENJAMIN34BELRCNAMUR1:25:401:25:406:00 10.02334BOIS-DE-VILLERS
92.1054DECABOOTER MATHIEU35BELVERTIGVERTIGO1:25:411:25:416:00 10.01336JURBISE
93.6789DESMEDT STIJN29BEL1:25:531:25:536:01 9.99338
94.6783LECHAT XAVIER30BEL1:25:581:25:586:01 9.98339
95.6241CAPPAÏ FLORIAN26BEL1:26:171:26:176:02 9.94348COLFONTAINE
96.1482BULTOT STEVEN33BEL1:26:211:26:216:03 9.94350MODAVE
97.1006HENRIOULLE JÉRÔME24BEL1:26:231:26:236:03 9.93352CHÂTELET
98.1029JANSSENS MICHAEL31BEL1:26:331:26:336:04 9.91356MANAGE
99.233GALAND JULIEN36BELCSFMYSTERE1:26:361:26:366:04 9.91360FOREST
100.734RASSCHAERT ALEXANDRE32BEL1:26:551:26:556:05 9.87372CINEY
101.6768DEFLANDRE JEREMIE32BEL1:28:311:28:316:12 9.69397
102.1021GONZE ADRIEN27BELJOGGING ET NATURE DE1:28:371:28:376:12 9.68401NAMUR
103.1508BACHELART CYRIL29BEL1:28:441:28:446:13 9.67408MASNUY-SAINT-JEAN
104.6694DEHARBES VALENTIN24BEL1:28:441:28:446:13 9.67409ANOR
105.1900ARDENGO DAMIEN32BEL1:28:501:28:506:13 9.66413NISMES
106.6224BROUSMICHE SIMON29BELCS FORGES1:29:151:29:156:15 9.61421SELOIGNES
107.152PAGE THIBAUT38BELJE COURS A INCOURT1:29:201:29:206:15 9.61423INCOURT
108.1043DETRY LOUIS20BEL1:29:261:29:266:16 9.59426MONTIGNY-LE-TILLEUL
109.226MARÉCHAL CHRISTOPHE39BELRCNAMUR1:29:311:29:316:16 9.59428NAMUR
110.6721RESTAINO ANTONIO27ITA1:30:081:30:086:19 9.52436MORLANWELZ
111.6792BASTIEN LUC25BEL1:30:301:30:306:20 9.48441
112.6504VASSART PIERRE25BEL1:30:471:30:476:21 9.45449TONGRINNE
113.1024LOISEAU ZACHARIE24BELTABERNAK1:30:581:30:586:22 9.43452MONTRÉAL
114.6801DESORBAY BRYAN25BEL1:32:591:32:596:31 9.23478
115.334GOURDIN CÉDRIC35BELGAG1:33:241:33:246:32 9.19483GEMBLOUX
116.1916BOURTEMBOURG VINCENT39BELTEAM SAMART1:33:481:33:486:34 9.15489NEUVILLE
117.6732CISCATO BENJAMIN30BEL1:33:491:33:496:34 9.15491
118.6749MONIN THOMAS27BEL1:34:011:34:016:35 9.13498ETTERBEEK
119.6817FATTOUT AURELIE33BEL1:34:241:34:246:37 9.09504ROUX
120.6228ROULLE SÉBASTIEN36FRAROCROY SPORTS NATURE1:34:511:34:516:38 9.05511ROCROI
121.6227DUJARDIN ANTOINE21FRARSN1:34:511:34:516:38 9.05512ROCROI
122.6808FGAILLY MARINE23BEL1:35:081:35:086:40 9.02515BEAUMONT
123.6723GILSON SÉBASTIEN38BEL1:35:561:35:566:43 8.94530
124.6409BOURGUIGNON PIERRE30BELXV DU LOUP1:35:571:35:576:43 8.94531CHIMAY
125.1490DE MUNCK PIERRE27BEL1:35:571:35:576:43 8.94532AUDERGHEM
126.6177CHANTEUX ALEXANDRE37BELRUN'HEURE CERFONTAIN1:36:161:36:166:44 8.91537CERFONTAINE
127.6180GÉRARD CORENTIN23BEL1:36:411:36:416:46 8.88545VILLERS LA TOUR
128.6438MAUDOUX PIERRE-YVES33BEL1:37:291:37:296:49 8.80554ERPENT
129.6178LESOIL NICOLAS34BELZATAC CHARLEROI1:38:561:38:566:56 8.67580RANSART
130.6525VANDELOISE NICOLAS21BEL1:39:081:39:086:56 8.66582COURCELLES
131.6428SORIGNON ALEXIS23FRA1:39:321:39:326:58 8.62588ETEIGNIERES
132.1516SALOMEZ FLORIAN31FRA1:39:331:39:336:58 8.62589CLAIRFAYTS
133.1023ATTOUT FRANCOIS29BEL1:41:201:41:207:06 8.47612MONCEAU
134.6700DEMANET ARNAUD26BEL1:41:441:41:447:07 8.43621
135.6802D'HAESE BENJAMIN28BEL1:42:061:42:067:09 8.40626GOSSELIES
136.6405THOMAS RENAUX26BEL1:42:071:42:077:09 8.40627MARCHIENNE-AU-PONT
137.1069BOULENGER EDOUARD39FRA1:42:071:42:077:09 8.40628AULNOYE-AYMERIES
138.1063TOSOLINI LUC30FRA1:42:091:42:097:09 8.40629ÉCLAIBES
139.1500STAQUET LAURENT39BEL1:42:251:42:257:10 8.38635GOUY-LEZ-PIÉTON
140.6799CANNE SAMUEL38BEL1:42:351:42:357:11 8.37636
141.6427DROPSY QUENTIN22BEL1:42:401:42:407:11 8.36639RANCE
142.6790DUBUISSON NICOLAS32BEL1:42:521:42:527:12 8.34644
143.6816VANHEE JEREMY28BEL1:43:411:43:417:15 8.28657
144.6699FRANÇOIS MATHIEU28BEL1:43:431:43:437:16 8.27658
145.6798MASUY HADRIEN23BEL1:44:471:44:477:20 8.19669
146.807SCAUT PIERRE34BELJC HSH1:45:311:45:317:23 8.13677HAM-SUR-HEURE
147.6689THIOUX SYLVAIN38BELPLANET VIDEO1:46:531:46:537:29 8.03693MONTIGNIES/S
148.1908DUBUS NICOLAS35FRACH'TISCH'TIS MARATHONIENS1:50:421:50:427:45 7.75745AUBRY DU HAINAUT
149.316MARTENS CORENTIN28BEL1:50:451:50:457:45 7.75748CLAVIER
150.707NEMANN BRUNO37BELRCNAMUR1:54:091:54:097:59 7.52781WARTET
151.1086CHAMPION LUC28BEL1:54:151:54:158:00 7.51784NAMUR
152.1027DENAYER THIBAUT36BEL1:54:511:54:518:02 7.47789JUMET
153.6708WACQUEZ JULES26BEL1:58:481:58:488:19 7.22809
154.6706IGOT PIERRICK26BEL1:58:481:58:488:19 7.22810SART-EUSTACHE
155.1326CATINUS JEAN29BEL1:59:161:59:168:21 7.19816CHIMAY
156.6707RAWSQUIN IGNACE26BEL1:59:381:59:388:22 7.17821
157.6709CERCKEL ARNAUD26BEL1:59:381:59:388:22 7.17822
158.6540MANSU ROMAIN26FRA2:00:072:00:078:24 7.14826BAZEILLES
159.1066PAULET MATTHIEU33FRA2:00:082:00:088:25 7.14827BALAN
160.6472GAND OLIVIER29FRA2:00:082:00:088:25 7.14828FRANCE
161.6815MIEL JULIEN29FRA2:00:082:00:088:25 7.14830
162.1002GAND GUILLAUME28FRA2:00:082:00:088:25 7.14832VRIGNE-AUX-BOIS
163.6529GUILLAUME JULIEN27BELSHARKS2:05:512:05:518:48 6.82858X
164.6502GUILLAUME SÉBASTIEN25BELSHARKS2:06:002:06:008:49 6.81860X
165.1613BOURGOIS RUDY37FRA2:07:082:07:088:54 6.75865VIVIER AU COURT
166.1541BERTRAND MATTHIEU34BELRONVAU2:10:002:10:009:06 6.608731360
167.6844PAINCHART GARY24FRA2:10:122:10:129:07 6.59878AUDIGNIES
168.6167BUTEL LOIC37FRASTRATOS RUNNING2:11:272:11:279:12 6.53883SOLRE LE CHATEAU
169.6433LECHAT FRANCOIS32BEL2:12:012:12:019:14 6.50885FROIDCHAPELLE
170.6455HALLET CLÉMENT31BEL2:14:122:14:129:24 6.39898LÉGLISE
171.6830ARGENTO ANAEL34BEL2:30:032:30:0310:30 5.72906
172.1484ROCKS DIDIER37BEL2:30:032:30:0310:30 5.72907SERAING
173.1483ROCKS STEPHANE38BEL2:30:042:30:0410:30 5.72908SERAING
DNF: did not finish; DSQ: disqualified; Speed in km/h
Page: [1]